This is the latest recevied weather packets stored in our database for station/object AB4KY. If no packets are shown the sender has not sent any weather packets the latest 10 day(s).
| Time | Temp. | Humidity | Pressure | Rain* | Wind** | Luminosity | Snow |
|---|---|---|---|---|---|---|---|
| 1777727546 | 7.78° C | 77% | 1016.1 hPa | 0 mm | - | 122 W/m² | - |
| 1777727242 | 7.78° C | 75% | 1016.1 hPa | 0 mm | - | 113 W/m² | - |
| 1777726940 | 7.78° C | 76% | 1016 hPa | 0 mm | - | 99 W/m² | - |
| 1777726636 | 7.78° C | 79% | 1016 hPa | 0 mm | - | 95 W/m² | - |
| 1777726334 | 7.78° C | 81% | 1015.9 hPa | 0 mm | - | 83 W/m² | - |
| 1777726030 | 7.22° C | 76% | 1016 hPa | 0 mm | - | 114 W/m² | - |
| 1777725727 | 7.22° C | 81% | 1015.9 hPa | 0 mm | - | 69 W/m² | - |
| 1777725426 | 6.67° C | 82% | 1015.6 hPa | 0 mm | - | 97 W/m² | - |
| 1777725123 | 6.67° C | 84% | 1015.9 hPa | 0 mm | - | 82 W/m² | - |
| 1777724819 | 6.11° C | 87% | 1015.5 hPa | 0 mm | - | 78 W/m² | - |
| 1777724515 | 6.11° C | 90% | 1015.6 hPa | 0 mm | - | 86 W/m² | - |
| 1777724214 | 5° C | 90% | 1015.7 hPa | 0 mm | - | 67 W/m² | - |
| 1777723911 | 5° C | 94% | 1015.7 hPa | 0 mm | - | 50 W/m² | - |
| 1777723608 | 4.44° C | 96% | 1016 hPa | 0 mm | - | 48 W/m² | - |
| 1777723305 | 4.44° C | 97% | 1016 hPa | 0 mm | - | 49 W/m² | - |
| 1777723002 | 3.89° C | 97% | 1015.7 hPa | 0 mm | - | 33 W/m² | - |
| 1777722698 | 3.89° C | 97% | 1015.6 hPa | 0 mm | - | 24 W/m² | - |
| 1777722394 | 3.89° C | 97% | 1015.9 hPa | 0 mm | - | 21 W/m² | - |
| 1777722092 | 3.89° C | 97% | 1015.7 hPa | 0 mm | - | 21 W/m² | - |
| 1777721789 | 3.89° C | 96% | 1015.6 hPa | 0 mm | - | 21 W/m² | - |
| 1777721487 | 3.89° C | 96% | 1015.6 hPa | 0 mm | - | 18 W/m² | - |
| 1777721185 | 3.89° C | 96% | 1015.3 hPa | 0 mm | - | 16 W/m² | - |
| 1777720882 | 3.89° C | 96% | 1015.3 hPa | 0 mm | - | 12 W/m² | - |
| 1777720579 | 3.89° C | 96% | 1015.1 hPa | 0 mm | - | 11 W/m² | - |
| 1777720277 | 3.33° C | 96% | 1015.2 hPa | 0 mm | - | 7 W/m² | - |
* Rain latest hour (hover to see other rain measurements)
** Current wind speed in m/s (hover to see current wind gust speed)